Time;durP1;ratioP1;P1;durP2;ratioP2;P2;SDS_P1;SDS_P2;PMS_P1;PMS_P2;Temp;Humidity;BMP_temperature;BMP_pressure;BME280_temperature;BME280_humidity;BME280_pressure;Samples;Min_cycle;Max_cycle;Signal;HPM_P1;HPM_P2
2021/01/11 00:01:28;;;;;;;26.90;20.45;;;;;;;10.78;62.80;102060.78;5081255;28;20028;-86
2021/01/11 00:03:54;;;;;;;23.40;20.23;;;;;;;10.60;63.12;102034.59;5085110;28;20028;-85
2021/01/11 00:06:19;;;;;;;24.98;17.27;;;;;;;10.46;63.50;102043.41;5064090;28;20400;-87
2021/01/11 00:08:45;;;;;;;26.73;16.67;;;;;;;10.35;63.61;102033.69;5083989;28;20036;-86
2021/01/11 00:11:21;;;;;;;22.77;17.10;;;;;;;10.48;63.39;102049.50;5081753;28;20447;-87
2021/01/11 00:13:46;;;;;;;20.02;14.00;;;;;;;10.59;62.94;102051.91;5064127;28;20119;-87
2021/01/11 00:16:12;;;;;;;18.98;14.65;;;;;;;10.45;62.89;102038.97;5081289;28;20107;-86
2021/01/11 00:18:39;;;;;;;19.95;16.17;;;;;;;10.47;62.48;102045.09;5084721;28;20048;-85
2021/01/11 00:21:05;;;;;;;16.35;12.32;;;;;;;10.50;62.39;102044.75;5086528;28;20545;-86
2021/01/11 00:23:30;;;;;;;21.92;12.43;;;;;;;10.50;62.50;102047.47;5087801;28;20199;-85
2021/01/11 00:25:56;;;;;;;20.48;13.40;;;;;;;10.47;62.36;102042.34;5072009;28;20032;-84
2021/01/11 00:28:21;;;;;;;18.55;12.43;;;;;;;10.26;62.80;102021.88;5085544;28;20020;-85
2021/01/11 00:30:47;;;;;;;21.85;13.70;;;;;;;10.45;62.24;102023.50;5056316;28;20039;-88
2021/01/11 00:33:12;;;;;;;20.50;14.50;;;;;;;10.69;61.65;102047.19;5070649;28;20165;-88
2021/01/11 00:35:37;;;;;;;19.70;13.20;;;;;;;10.59;61.91;102038.31;5055108;28;20105;-87
2021/01/11 00:38:03;;;;;;;20.58;11.50;;;;;;;10.68;61.51;102022.88;5087449;28;20039;-85
2021/01/11 00:40:28;;;;;;;19.42;13.27;;;;;;;10.56;61.56;102020.44;5070926;28;20043;-86
2021/01/11 00:42:54;;;;;;;23.02;13.20;;;;;;;10.72;61.26;102014.19;5069397;28;20043;-87
2021/01/11 00:45:19;;;;;;;19.88;13.45;;;;;;;10.36;62.03;102014.47;5068885;28;20033;-87
2021/01/11 00:47:44;;;;;;;22.67;15.05;;;;;;;10.44;61.85;102015.50;5084769;28;20036;-86
2021/01/11 00:50:10;;;;;;;22.02;13.20;;;;;;;10.46;61.82;102005.31;5057183;28;20367;-88
2021/01/11 00:52:36;;;;;;;26.52;15.88;;;;;;;10.45;62.17;102018.06;5074917;28;20047;-87
2021/01/11 00:55:07;;;;;;;27.92;19.50;;;;;;;10.47;62.25;102013.31;5082263;28;20409;-87
2021/01/11 00:57:32;;;;;;;27.92;18.63;;;;;;;10.41;62.11;102000.38;5077118;28;20035;-85
2021/01/11 00:59:57;;;;;;;28.30;19.20;;;;;;;10.60;61.75;102006.50;5070323;28;20032;-88
2021/01/11 01:02:23;;;;;;;22.40;19.10;;;;;;;10.35;62.24;101999.16;5085175;28;20039;-86
2021/01/11 01:04:48;;;;;;;19.17;14.23;;;;;;;10.17;62.29;102009.28;5085108;28;20032;-87
2021/01/11 01:07:14;;;;;;;17.92;13.68;;;;;;;10.17;62.60;102006.56;5067497;28;20391;-87
2021/01/11 01:09:39;;;;;;;20.88;15.45;;;;;;;10.37;62.17;102007.16;5084320;28;20055;-90
2021/01/11 01:12:05;;;;;;;23.77;14.82;;;;;;;10.47;61.95;102029.63;5070166;28;20020;-85
2021/01/11 01:14:30;;;;;;;23.98;16.27;;;;;;;10.59;61.49;101993.94;5068193;28;20036;-85
2021/01/11 01:16:56;;;;;;;18.13;16.15;;;;;;;10.04;63.49;101996.16;5068347;28;20822;-85
2021/01/11 01:19:21;;;;;;;19.92;17.55;;;;;;;10.29;62.25;101985.38;5084137;28;20383;-89
2021/01/11 01:21:47;;;;;;;22.55;18.60;;;;;;;10.44;61.92;101983.72;5068784;28;20055;-87
2021/01/11 01:24:12;;;;;;;22.95;18.83;;;;;;;10.39;62.32;101976.06;5087828;28;20032;-86
2021/01/11 01:26:37;;;;;;;25.13;18.13;;;;;;;10.51;62.04;101965.69;5054221;28;20410;-87
2021/01/11 01:29:03;;;;;;;23.27;20.05;;;;;;;10.64;61.52;101967.06;5070167;28;20050;-87
2021/01/11 01:31:28;;;;;;;25.58;20.63;;;;;;;10.46;62.39;101976.25;5068854;28;20035;-86
2021/01/11 01:33:54;;;;;;;28.88;19.60;;;;;;;10.54;62.23;101978.97;5087183;28;20024;-87
2021/01/11 01:36:20;;;;;;;28.25;17.40;;;;;;;10.51;61.94;101970.31;5069831;28;20665;-86
2021/01/11 01:38:46;;;;;;;21.95;17.00;;;;;;;10.54;61.78;101980.84;5083636;28;20032;-87
2021/01/11 01:41:11;;;;;;;20.67;13.45;;;;;;;10.35;61.97;101982.84;5066095;28;20035;-87
2021/01/11 01:43:37;;;;;;;17.30;12.98;;;;;;;10.38;61.95;101990.69;5069356;28;20031;-88
2021/01/11 01:46:04;;;;;;;15.75;12.23;;;;;;;10.39;61.70;101978.78;5053319;28;20051;-87
2021/01/11 01:48:30;;;;;;;21.25;12.10;;;;;;;10.30;61.74;101954.41;5087829;28;20028;-86
2021/01/11 01:50:55;;;;;;;22.67;13.55;;;;;;;10.32;61.42;101964.13;5070909;28;20467;-89
2021/01/11 01:53:21;;;;;;;18.70;11.48;;;;;;;10.10;62.06;101986.47;5085708;28;20547;-86
2021/01/11 01:55:47;;;;;;;13.90;9.82;;;;;;;10.07;62.23;101975.94;5092721;28;20062;-87
2021/01/11 01:58:16;;;;;;;15.43;8.07;;;;;;;10.09;62.63;101982.09;5065565;28;20471;-90
2021/01/11 02:04:06;;;;;;;14.15;9.93;;;;;;;10.39;61.58;101975.19;5062935;28;20261;-86
2021/01/11 02:06:35;;;;;;;18.17;7.10;;;;;;;10.43;61.63;101979.31;5087070;28;20074;-87
2021/01/11 02:09:15;;;;;;;8.95;6.18;;;;;;;10.24;62.08;101963.25;5085104;28;20059;-85
2021/01/11 02:11:51;;;;;;;12.68;7.72;;;;;;;10.35;61.73;101973.84;5087727;28;20032;-91
2021/01/11 02:14:25;;;;;;;12.35;7.32;;;;;;;10.39;61.27;101967.91;5085585;28;20732;-87
2021/01/11 02:17:05;;;;;;;8.57;6.18;;;;;;;10.43;61.00;101978.47;5086049;28;20047;-90
2021/01/11 02:20:06;;;;;;;12.43;7.32;;;;;;;10.49;60.63;101977.78;5084516;28;20112;-88
2021/01/11 02:23:06;;;;;;;13.38;8.70;;;;;;;10.60;60.46;101982.03;5048112;28;20079;-88
2021/01/11 02:25:40;;;;;;;15.15;8.35;;;;;;;10.59;60.21;101970.31;5085473;28;20605;-86
2021/01/11 02:28:20;;;;;;;15.55;6.63;;;;;;;10.46;60.66;101984.41;5085628;28;20549;-86
2021/01/11 02:33:20;;;;;;;15.73;7.38;;;;;;;10.38;60.81;101989.84;5657091;22;20057;-86
2021/01/11 02:35:49;;;;;;;15.13;6.50;;;;;;;10.09;61.62;101987.53;4983099;28;20384;-88
2021/01/11 02:38:21;;;;;;;10.38;6.72;;;;;;;9.94;61.53;101969.09;4989500;28;20396;-87
2021/01/11 02:40:47;;;;;;;13.95;5.25;;;;;;;9.96;61.83;101969.81;5003166;28;20407;-87
2021/01/11 02:43:13;;;;;;;13.52;6.72;;;;;;;10.29;61.57;101983.50;5006100;28;20038;-86
2021/01/11 02:45:39;;;;;;;13.45;6.47;;;;;;;10.36;61.06;101970.09;4982530;28;20029;-88
2021/01/11 02:48:07;;;;;;;19.30;8.27;;;;;;;10.57;60.78;101969.63;4956639;28;20099;-88
2021/01/11 02:50:39;;;;;;;12.93;6.93;;;;;;;10.41;61.23;101961.44;5003139;28;20033;-87
2021/01/11 02:53:07;;;;;;;16.38;7.57;;;;;;;10.35;61.43;101955.66;5006128;28;20030;-87
2021/01/11 02:55:57;;;;;;;12.63;5.82;;;;;;;10.25;61.66;101954.91;4987309;28;20033;-88
2021/01/11 02:58:36;;;;;;;9.73;8.30;;;;;;;10.26;61.37;101977.53;4987581;28;20026;-86
2021/01/11 03:01:05;;;;;;;14.05;7.18;;;;;;;10.16;61.43;101989.41;4986232;28;20034;-87
2021/01/11 03:03:32;;;;;;;10.60;8.18;;;;;;;10.26;60.77;101985.69;4987574;28;20497;-85
2021/01/11 03:05:58;;;;;;;12.77;8.82;;;;;;;9.83;62.09;101966.69;5005238;28;20439;-90
2021/01/11 03:08:23;;;;;;;15.15;9.05;;;;;;;10.27;61.29;101981.94;5006533;28;20040;-88
2021/01/11 03:10:51;;;;;;;15.32;10.20;;;;;;;10.29;60.81;101961.75;4988287;28;20087;-88
2021/01/11 03:13:17;;;;;;;15.27;9.57;;;;;;;10.21;61.20;101968.00;4984969;28;20030;-89
2021/01/11 03:15:42;;;;;;;13.77;8.77;;;;;;;10.26;60.99;101961.22;4968875;28;20042;-88
2021/01/11 03:18:08;;;;;;;8.35;6.63;;;;;;;10.14;61.53;101957.97;4970218;28;20097;-87
2021/01/11 03:20:33;;;;;;;14.82;8.40;;;;;;;10.20;60.76;101930.13;4971990;28;20033;-87
2021/01/11 03:22:59;;;;;;;10.32;8.75;;;;;;;10.21;61.12;101942.69;4968780;28;20057;-88
2021/01/11 03:25:24;;;;;;;12.77;10.35;;;;;;;10.25;60.85;101935.88;4987059;28;20029;-84
2021/01/11 03:27:50;;;;;;;11.55;9.82;;;;;;;10.22;61.21;101930.78;4971057;28;20056;-88
2021/01/11 03:30:15;;;;;;;11.02;8.20;;;;;;;10.17;61.63;101925.84;4987990;28;20034;-87
2021/01/11 03:32:41;;;;;;;15.43;11.15;;;;;;;10.32;61.27;101923.34;4999715;28;20367;-88
2021/01/11 03:35:06;;;;;;;18.20;8.90;;;;;;;10.25;61.71;101932.34;4954183;28;20045;-91
2021/01/11 03:37:32;;;;;;;13.50;8.13;;;;;;;10.34;61.46;101932.19;4947336;28;20042;-85
2021/01/11 03:39:58;;;;;;;12.18;9.65;;;;;;;10.31;61.89;101918.06;4951341;28;20507;-87
2021/01/11 03:42:23;;;;;;;18.58;10.07;;;;;;;10.15;62.40;101916.19;4944894;28;20041;-88
2021/01/11 03:44:48;;;;;;;10.25;7.10;;;;;;;10.32;62.10;101931.50;4964783;28;20061;-87
2021/01/11 03:47:14;;;;;;;17.50;7.50;;;;;;;10.27;62.07;101901.25;4973450;28;20034;-87
2021/01/11 03:49:39;;;;;;;15.07;8.00;;;;;;;10.34;62.11;101896.84;4957307;28;20543;-89
2021/01/11 03:52:05;;;;;;;12.38;8.90;;;;;;;10.52;61.64;101899.41;4954125;28;20042;-89
2021/01/11 03:54:30;;;;;;;15.85;8.52;;;;;;;10.57;61.36;101894.31;4955780;28;20027;-87
2021/01/11 03:56:56;;;;;;;15.13;9.25;;;;;;;10.70;61.48;101904.66;4969916;28;20038;-87
2021/01/11 03:59:22;;;;;;;15.13;8.85;;;;;;;10.52;61.59;101879.53;4964512;28;20540;-89
2021/01/11 04:01:48;;;;;;;15.07;8.43;;;;;;;10.52;61.90;101884.97;4968416;28;20477;-86
2021/01/11 04:04:13;;;;;;;19.58;10.05;;;;;;;10.20;62.71;101876.59;4957388;28;20049;-88
2021/01/11 04:06:39;;;;;;;13.18;7.65;;;;;;;10.45;61.96;101878.50;4969969;28;20030;-89
2021/01/11 04:09:04;;;;;;;11.82;8.20;;;;;;;10.36;62.06;101859.47;4973839;28;20165;-87
2021/01/11 04:11:30;;;;;;;10.07;6.47;;;;;;;10.50;61.58;101857.09;4949626;28;20252;-87
2021/01/11 04:13:55;;;;;;;12.35;6.03;;;;;;;10.59;61.44;101857.94;4956741;28;20042;-86
2021/01/11 04:16:20;;;;;;;14.07;6.65;;;;;;;10.55;61.61;101881.88;4971029;28;20030;-88
2021/01/11 04:18:47;;;;;;;12.13;6.85;;;;;;;10.42;62.01;101873.41;4954085;28;20504;-87
2021/01/11 04:21:12;;;;;;;9.65;6.32;;;;;;;10.50;61.78;101870.69;4966590;28;20556;-88
2021/01/11 04:23:39;;;;;;;11.65;6.15;;;;;;;10.70;60.91;101863.84;4955497;28;20045;-88
2021/01/11 04:26:07;;;;;;;10.07;7.00;;;;;;;10.50;61.17;101866.09;4973900;28;20129;-90
2021/01/11 04:28:32;;;;;;;11.32;8.02;;;;;;;10.54;61.03;101856.56;4972372;28;20037;-86
2021/01/11 04:30:58;;;;;;;13.23;8.30;;;;;;;10.70;60.93;101869.28;4954365;28;20403;-86
2021/01/11 04:33:23;;;;;;;10.90;7.18;;;;;;;10.73;60.69;101859.94;4964838;28;20058;-87
2021/01/11 04:35:49;;;;;;;16.73;8.82;;;;;;;10.55;61.13;101851.97;4969905;28;20029;-87
2021/01/11 04:38:14;;;;;;;12.85;6.90;;;;;;;10.67;60.80;101856.03;4951382;28;20500;-87
2021/01/11 04:40:40;;;;;;;10.25;6.60;;;;;;;10.67;61.33;101866.91;4956292;28;20503;-88
2021/01/11 04:43:15;;;;;;;12.68;6.15;;;;;;;10.69;60.96;101861.31;4937547;28;20046;-87
2021/01/11 04:45:41;;;;;;;11.65;5.60;;;;;;;10.49;61.02;101839.91;4987480;28;20034;-86
2021/01/11 04:48:06;;;;;;;11.10;5.93;;;;;;;10.63;60.55;101846.53;4974857;28;20027;-88
2021/01/11 04:50:32;;;;;;;9.80;6.20;;;;;;;10.61;61.08;101847.72;4957460;28;20034;-86
2021/01/11 04:52:57;;;;;;;18.33;7.63;;;;;;;10.41;61.70;101833.63;4973117;28;20424;-89
2021/01/11 04:55:23;;;;;;;11.75;7.82;;;;;;;10.46;61.87;101823.09;4968242;28;20121;-86
2021/01/11 04:57:54;;;;;;;16.30;8.13;;;;;;;10.33;62.04;101832.63;4987688;28;20034;-87
2021/01/11 05:00:25;;;;;;;14.60;8.23;;;;;;;10.34;62.21;101834.31;4966368;28;20057;-87
2021/01/11 05:02:58;;;;;;;;;;;;;;;10.51;61.79;101834.31;4971591;28;20363;-91
2021/01/11 05:05:25;;;;;;;14.20;6.65;;;;;;;10.62;61.57;101835.84;4972941;28;20023;-87
2021/01/11 05:07:50;;;;;;;18.30;7.63;;;;;;;10.80;61.23;101841.06;4968043;28;20038;-88
2021/01/11 05:10:30;;;;;;;13.60;8.45;;;;;;;10.63;61.65;101832.94;4967930;28;20769;-90
2021/01/11 05:12:58;;;;;;;12.50;8.68;;;;;;;10.33;62.59;101810.88;4968082;28;20088;-87
2021/01/11 05:15:29;;;;;;;17.33;9.65;;;;;;;10.37;62.38;101825.81;4977824;28;20058;-87
2021/01/11 05:17:56;;;;;;;10.93;8.23;;;;;;;10.57;61.57;101807.25;4986124;28;20073;-87
2021/01/11 05:20:26;;;;;;;16.45;9.65;;;;;;;10.51;62.04;101812.56;4969787;28;20018;-87
2021/01/11 05:22:53;;;;;;;11.38;7.75;;;;;;;10.65;61.09;101802.84;4953819;28;20030;-89
2021/01/11 05:25:21;;;;;;;10.57;7.38;;;;;;;10.87;60.93;101810.25;4983703;28;20043;-88
2021/01/11 05:28:03;;;;;;;12.65;7.82;;;;;;;10.86;60.92;101813.16;4970205;28;20539;-89
2021/01/11 05:30:31;;;;;;;14.27;9.23;;;;;;;10.47;61.88;101795.75;4979578;28;20042;-86
2021/01/11 05:32:57;;;;;;;16.08;9.57;;;;;;;10.56;61.47;101783.78;4984844;28;20110;-88
2021/01/11 05:35:24;;;;;;;12.88;6.45;;;;;;;10.39;62.13;101799.31;4987594;28;20485;-88
2021/01/11 05:37:51;;;;;;;16.38;9.07;;;;;;;10.46;62.52;101796.75;4966868;28;20041;-88
2021/01/11 05:40:24;;;;;;;13.82;8.50;;;;;;;10.50;61.98;101779.06;4971625;28;20053;-86
2021/01/11 05:42:55;;;;;;;15.38;11.38;;;;;;;10.53;62.24;101796.91;4962304;28;20046;-89
2021/01/11 05:45:21;;;;;;;17.40;8.07;;;;;;;10.55;61.79;101779.41;4981434;28;20093;-87
2021/01/11 05:48:06;;;;;;;19.13;9.45;;;;;;;10.47;62.13;101773.13;4985629;28;20138;-87
2021/01/11 05:50:39;;;;;;;15.35;8.70;;;;;;;10.41;62.20;101761.06;4968080;28;20039;-87
2021/01/11 05:53:14;;;;;;;16.17;9.18;;;;;;;10.58;61.93;101764.59;4986623;28;20061;-89
2021/01/11 05:55:39;;;;;;;19.80;12.93;;;;;;;10.66;61.69;101755.56;4972652;28;20026;-90
2021/01/11 05:58:05;;;;;;;19.30;15.43;;;;;;;10.72;61.54;101760.28;4934538;28;20405;-88
2021/01/11 06:00:35;;;;;;;20.00;12.32;;;;;;;10.75;61.27;101768.97;4953448;28;20042;-88
2021/01/11 06:03:03;;;;;;;21.43;17.93;;;;;;;10.78;60.89;101745.16;4949114;28;20082;-90
2021/01/11 06:05:30;;;;;;;22.48;13.55;;;;;;;10.74;61.16;101752.81;4969792;28;20041;-88
2021/01/11 06:07:56;;;;;;;21.17;13.57;;;;;;;10.78;61.01;101759.59;4957009;28;20312;-89
2021/01/11 06:10:23;;;;;;;23.38;14.40;;;;;;;10.75;61.19;101755.38;4968098;28;20389;-88
2021/01/11 06:12:49;;;;;;;26.45;14.63;;;;;;;10.88;60.95;101764.84;4956721;28;20346;-88
2021/01/11 06:15:25;;;;;;;22.52;12.30;;;;;;;10.59;61.67;101766.28;4965240;28;20540;-89
2021/01/11 06:17:52;;;;;;;23.88;11.70;;;;;;;10.72;61.27;101768.47;4986990;28;20034;-87
2021/01/11 06:20:23;;;;;;;21.35;11.35;;;;;;;10.87;60.65;101761.25;4966483;28;20113;-88
2021/01/11 06:22:48;;;;;;;18.50;10.70;;;;;;;10.55;61.68;101773.97;4969762;28;20510;-89
2021/01/11 06:25:17;;;;;;;19.75;12.55;;;;;;;10.56;61.64;101782.97;4965186;28;20041;-89
2021/01/11 06:27:51;;;;;;;17.17;10.00;;;;;;;10.24;61.94;101760.22;4986250;28;20065;-88
2021/01/11 06:30:35;;;;;;;16.98;9.73;;;;;;;10.39;62.20;101763.97;4987739;28;20052;-88
2021/01/11 06:33:25;;;;;;;13.13;8.77;;;;;;;10.42;62.06;101756.47;4985782;28;20043;-89
2021/01/11 06:35:53;;;;;;;22.05;11.75;;;;;;;10.33;62.37;101751.06;4969783;28;20030;-89
2021/01/11 06:38:30;;;;;;;20.35;13.15;;;;;;;10.36;61.66;101742.56;4969240;28;20053;-88
2021/01/11 06:41:02;;;;;;;18.00;12.55;;;;;;;10.38;62.10;101759.53;4947830;28;20027;-89
2021/01/11 06:43:40;;;;;;;17.15;12.90;;;;;;;10.59;61.44;101744.53;4967709;28;20133;-86
2021/01/11 06:46:06;;;;;;;17.80;8.98;;;;;;;10.67;60.86;101752.66;4981505;28;20372;-88
2021/01/11 06:48:36;;;;;;;18.98;9.48;;;;;;;10.53;61.24;101739.78;4968596;28;20038;-88
2021/01/11 06:51:07;;;;;;;14.27;8.63;;;;;;;10.35;61.76;101745.44;4965060;28;20065;-89
2021/01/11 06:53:32;;;;;;;17.85;10.82;;;;;;;10.50;61.36;101753.72;4981648;28;20030;-88
2021/01/11 06:56:03;;;;;;;15.10;9.73;;;;;;;10.06;62.36;101748.69;4971649;28;20085;-89
2021/01/11 06:58:33;;;;;;;15.52;10.77;;;;;;;10.24;61.91;101752.06;4983066;28;20052;-89
2021/01/11 07:01:07;;;;;;;11.25;9.05;;;;;;;10.25;61.83;101742.88;4986005;28;20030;-88
2021/01/11 07:03:42;;;;;;;15.82;10.02;;;;;;;9.95;62.84;101742.56;4964934;28;20180;-88
2021/01/11 07:06:37;;;;;;;13.20;7.38;;;;;;;10.12;62.21;101742.56;4983305;28;20026;-88
2021/01/11 07:09:15;;;;;;;9.75;8.38;;;;;;;10.36;61.41;101736.25;4964192;28;20030;-89
2021/01/11 07:11:48;;;;;;;12.38;10.55;;;;;;;10.56;60.88;101737.56;4982781;28;20034;-91
2021/01/11 07:14:15;;;;;;;13.27;8.70;;;;;;;10.49;60.60;101725.69;4937291;28;20040;-90
2021/01/11 07:16:46;;;;;;;17.23;8.88;;;;;;;10.41;61.94;101731.16;4968120;28;20526;-90
2021/01/11 07:19:13;;;;;;;20.17;10.63;;;;;;;10.43;61.98;101717.41;4962460;28;20034;-87
2021/01/11 07:21:40;;;;;;;14.25;10.98;;;;;;;10.57;61.93;101708.50;4953394;28;20042;-88
2021/01/11 07:24:07;;;;;;;18.92;13.88;;;;;;;10.50;62.31;101719.25;4945047;28;20042;-88
2021/01/11 07:26:35;;;;;;;23.08;8.80;;;;;;;10.47;63.00;101716.88;4972003;28;20077;-89
2021/01/11 07:29:08;;;;;;;20.67;9.52;;;;;;;10.31;63.69;101715.00;4972006;28;20037;-87
2021/01/11 07:31:36;;;;;;;17.38;9.68;;;;;;;10.27;63.91;101719.09;4971117;28;20034;-87
2021/01/11 07:34:06;;;;;;;15.15;9.73;;;;;;;10.46;63.44;101711.59;4948774;28;20464;-85
2021/01/11 07:36:46;;;;;;;21.88;9.98;;;;;;;10.60;63.12;101729.03;4965595;28;20035;-88
2021/01/11 07:39:25;;;;;;;17.23;10.77;;;;;;;10.44;63.11;101708.19;4968078;28;20638;-88
2021/01/11 07:41:55;;;;;;;18.00;12.85;;;;;;;10.57;63.08;101711.22;4982021;28;20101;-88
2021/01/11 07:44:23;;;;;;;22.20;13.52;;;;;;;10.39;63.29;101708.72;4973877;28;20076;-89
2021/01/11 07:46:55;;;;;;;17.17;13.25;;;;;;;10.42;62.95;101708.38;4986773;28;20033;-89
2021/01/11 07:49:21;;;;;;;21.10;10.77;;;;;;;10.52;62.60;101710.91;4972846;28;20030;-86
2021/01/11 07:51:50;;;;;;;14.40;10.48;;;;;;;10.45;62.87;101716.19;4987423;28;20046;-89
2021/01/11 07:54:21;;;;;;;14.95;12.82;;;;;;;10.42;62.54;101693.94;4954513;28;20084;-89
2021/01/11 07:56:49;;;;;;;15.20;11.38;;;;;;;10.41;62.50;101692.22;4967766;28;20077;-88
2021/01/11 07:59:18;;;;;;;13.88;8.35;;;;;;;10.38;62.42;101699.72;4972653;28;20104;-88
2021/01/11 08:01:48;;;;;;;13.30;9.52;;;;;;;10.27;62.87;101699.19;4968598;28;20488;-87
2021/01/11 08:04:14;;;;;;;18.55;7.68;;;;;;;10.30;62.72;101691.56;4973493;28;20500;-88
2021/01/11 08:06:44;;;;;;;17.02;9.05;;;;;;;10.37;62.68;101698.00;4959021;28;20046;-89
2021/01/11 08:09:12;;;;;;;14.88;8.88;;;;;;;10.30;62.77;101696.13;4969619;28;20042;-89
2021/01/11 08:11:38;;;;;;;13.90;8.82;;;;;;;10.42;62.66;101696.66;4970368;28;20484;-87
2021/01/11 08:14:07;;;;;;;14.02;11.40;;;;;;;10.35;62.86;101700.06;4955975;28;20026;-88
2021/01/11 08:16:34;;;;;;;14.27;10.52;;;;;;;10.22;63.38;101707.88;4959818;28;20038;-87
2021/01/11 08:19:05;;;;;;;20.27;14.73;;;;;;;10.42;62.61;101688.50;4988527;28;20038;-88
2021/01/11 08:21:30;;;;;;;23.30;11.10;;;;;;;10.33;62.46;101685.81;4954065;28;20038;-87
2021/01/11 08:24:04;;;;;;;16.58;11.00;;;;;;;10.59;61.80;101687.41;4975230;28;20038;-89
2021/01/11 08:26:32;;;;;;;25.50;11.63;;;;;;;10.44;62.50;101673.72;4985356;28;20432;-90
2021/01/11 08:28:58;;;;;;;21.60;10.07;;;;;;;10.66;62.09;101682.97;4965179;28;20022;-88
2021/01/11 08:31:25;;;;;;;15.05;10.80;;;;;;;10.83;61.73;101696.47;4954355;28;20597;-89
2021/01/11 08:33:51;;;;;;;20.48;9.93;;;;;;;10.71;62.05;101679.72;4950388;28;20563;-90
2021/01/11 08:36:21;;;;;;;25.05;9.23;;;;;;;10.60;62.67;101680.09;4967145;28;20148;-89
2021/01/11 08:39:07;;;;;;;16.77;10.25;;;;;;;10.85;62.01;101689.84;4967211;28;20022;-89
2021/01/11 08:41:35;;;;;;;17.38;9.13;;;;;;;10.79;62.10;101690.56;4981529;28;20468;-87
2021/01/11 08:44:01;;;;;;;29.92;9.80;;;;;;;10.69;62.63;101695.34;4953399;28;20049;-88
2021/01/11 08:46:50;;;;;;;20.05;12.23;;;;;;;10.99;62.13;101696.41;4988014;28;20244;-89
2021/01/11 08:49:15;;;;;;;18.33;10.18;;;;;;;10.99;62.23;101690.97;4960010;28;20061;-85
2021/01/11 08:51:41;;;;;;;22.90;9.57;;;;;;;10.63;63.21;101694.19;4952094;28;20038;-88
2021/01/11 08:54:06;;;;;;;18.15;8.93;;;;;;;10.74;62.49;101690.25;4955428;28;20089;-87
2021/01/11 08:56:35;;;;;;;17.63;10.25;;;;;;;10.52;62.87;101681.84;4953297;28;20046;-86
2021/01/11 08:59:01;;;;;;;16.48;8.40;;;;;;;10.75;62.46;101678.31;4954752;28;20049;-87
2021/01/11 09:01:33;;;;;;;16.30;7.32;;;;;;;10.70;62.07;101680.72;4969678;28;20061;-89
2021/01/11 09:03:59;;;;;;;19.40;10.18;;;;;;;10.64;62.44;101693.16;4954418;28;20053;-90
2021/01/11 09:06:44;;;;;;;15.70;7.38;;;;;;;10.83;61.96;101693.75;4955169;28;20039;-84
2021/01/11 09:09:18;;;;;;;12.07;5.93;;;;;;;11.03;61.44;101700.50;4966048;28;20634;-89
2021/01/11 09:11:45;;;;;;;13.25;7.35;;;;;;;10.52;62.41;101694.59;4951780;28;20040;-84
2021/01/11 09:14:16;;;;;;;13.18;6.95;;;;;;;10.87;61.16;101687.78;4966248;28;20421;-90
2021/01/11 09:16:46;;;;;;;18.92;6.78;;;;;;;10.85;61.10;101698.00;4971245;28;20101;-87
2021/01/11 09:19:13;;;;;;;9.73;6.57;;;;;;;10.80;60.89;101692.25;4949380;28;20058;-91
2021/01/11 09:21:41;;;;;;;11.95;6.28;;;;;;;10.93;60.76;101697.13;4963346;28;20509;-90
2021/01/11 09:24:08;;;;;;;11.48;8.63;;;;;;;10.93;60.56;101708.00;4971111;28;20064;-88
2021/01/11 09:26:34;;;;;;;18.35;7.72;;;;;;;10.81;60.42;101701.25;4985344;28;20575;-87
2021/01/11 09:29:00;;;;;;;16.85;5.90;;;;;;;11.07;59.88;101703.69;4972749;28;20036;-88
2021/01/11 09:31:26;;;;;;;11.75;5.80;;;;;;;10.74;60.24;101682.09;4968432;28;20030;-89
2021/01/11 09:33:53;;;;;;;11.95;5.15;;;;;;;10.70;60.35;101691.63;4968065;28;20046;-86
2021/01/11 09:36:20;;;;;;;12.43;7.10;;;;;;;11.00;59.86;101700.84;4952385;28;20038;-88
2021/01/11 09:38:46;;;;;;;8.80;7.03;;;;;;;10.88;59.57;101699.53;4970321;28;20182;-87
2021/01/11 09:41:12;;;;;;;9.02;4.63;;;;;;;10.59;59.86;101705.59;4948608;28;20026;-88
2021/01/11 09:43:37;;;;;;;12.60;9.45;;;;;;;10.82;58.81;101719.31;4954862;28;20034;-86
2021/01/11 09:46:03;;;;;;;19.38;8.85;;;;;;;10.79;58.67;101712.31;4957735;28;20040;-87
2021/01/11 09:48:28;;;;;;;12.20;7.00;;;;;;;10.47;58.36;101708.72;4939256;28;20929;-90
2021/01/11 09:50:54;;;;;;;11.52;6.05;;;;;;;10.78;57.66;101704.34;4938863;28;20041;-87
2021/01/11 09:53:19;;;;;;;15.68;9.50;;;;;;;10.88;57.55;101713.16;4953817;28;20492;-86
2021/01/11 09:55:45;;;;;;;16.77;10.93;;;;;;;11.02;56.97;101706.94;4952479;28;20030;-88
2021/01/11 09:58:17;;;;;;;17.60;10.40;;;;;;;10.96;56.80;101682.31;4953383;28;20092;-87
2021/01/11 10:00:43;;;;;;;11.75;7.40;;;;;;;10.78;57.35;101688.00;4987731;28;20034;-89
2021/01/11 10:03:09;;;;;;;11.27;8.30;;;;;;;10.65;57.55;101677.72;4952023;28;20070;-87
2021/01/11 10:05:34;;;;;;;12.60;7.38;;;;;;;10.59;57.63;101690.13;4969523;28;20113;-90
2021/01/11 10:08:01;;;;;;;10.32;9.27;;;;;;;10.59;57.34;101676.53;4962345;28;20037;-88
2021/01/11 10:10:26;;;;;;;17.33;8.18;;;;;;;10.86;57.26;101680.66;4968597;28;20045;-89
2021/01/11 10:12:52;;;;;;;11.55;6.25;;;;;;;10.85;56.93;101667.25;4967983;28;20038;-88
2021/01/11 10:15:17;;;;;;;12.20;7.00;;;;;;;10.97;56.87;101673.13;4952352;28;20057;-89
2021/01/11 10:17:43;;;;;;;11.15;7.13;;;;;;;10.96;57.16;101680.44;4949724;28;20581;-88
2021/01/11 10:20:10;;;;;;;11.18;8.75;;;;;;;10.79;57.30;101674.22;4949089;28;20030;-88
2021/01/11 10:22:35;;;;;;;14.35;8.57;;;;;;;10.91;56.86;101644.75;4951343;28;20513;-87
2021/01/11 10:25:01;;;;;;;10.48;5.70;;;;;;;10.91;56.59;101659.22;4988054;28;20038;-90
2021/01/11 10:27:27;;;;;;;11.50;5.47;;;;;;;10.87;56.21;101648.84;4952597;28;20042;-89
2021/01/11 10:29:53;;;;;;;9.07;6.68;;;;;;;10.93;55.84;101648.13;4989223;28;20042;-90
2021/01/11 10:32:18;;;;;;;7.20;5.43;;;;;;;10.68;56.34;101614.78;4969274;28;20036;-90
2021/01/11 10:34:43;;;;;;;11.65;10.55;;;;;;;10.65;56.24;101634.19;4988437;28;20065;-90
2021/01/11 10:37:09;;;;;;;13.07;8.00;;;;;;;11.03;55.48;101635.16;4950422;28;20034;-90
2021/01/11 10:39:35;;;;;;;10.32;6.35;;;;;;;11.04;55.38;101641.44;4956493;28;20041;-89
2021/01/11 10:42:00;;;;;;;9.15;7.03;;;;;;;10.85;55.75;101637.31;4953742;28;20034;-89
2021/01/11 10:44:27;;;;;;;14.30;6.40;;;;;;;10.83;56.16;101625.75;4953009;28;20046;-87
2021/01/11 10:46:54;;;;;;;13.95;7.20;;;;;;;10.94;55.48;101628.06;4951621;28;20034;-88
2021/01/11 10:49:21;;;;;;;12.10;7.32;;;;;;;10.85;56.07;101618.25;4965838;28;20550;-89
2021/01/11 10:51:48;;;;;;;11.55;6.20;;;;;;;10.95;56.07;101607.97;4979064;28;20271;-90
2021/01/11 10:54:13;;;;;;;11.80;5.82;;;;;;;10.88;56.30;101613.31;4984585;28;20026;-89
2021/01/11 10:56:39;;;;;;;11.07;5.43;;;;;;;11.00;56.04;101596.53;4954844;28;20909;-89
2021/01/11 10:59:04;;;;;;;18.20;10.50;;;;;;;11.24;55.35;101592.81;4968916;28;20089;-88
2021/01/11 11:01:30;;;;;;;10.30;7.68;;;;;;;11.10;55.94;101600.72;4958255;28;20092;-89
2021/01/11 11:03:56;;;;;;;12.82;5.53;;;;;;;11.03;55.90;101578.00;4980005;28;20108;-90
2021/01/11 11:06:25;;;;;;;9.57;4.95;;;;;;;10.99;55.60;101571.22;4955203;28;20097;-84
2021/01/11 11:08:52;;;;;;;9.55;4.90;;;;;;;11.18;54.23;101569.88;4969492;28;20040;-89
2021/01/11 11:11:17;;;;;;;6.78;6.10;;;;;;;11.08;54.25;101547.50;4953807;28;20033;-88
2021/01/11 11:13:43;;;;;;;11.40;7.22;;;;;;;11.16;54.14;101535.72;4983454;28;20729;-87
2021/01/11 11:16:10;;;;;;;13.18;5.78;;;;;;;10.77;55.21;101540.25;4969197;28;20633;-86
2021/01/11 11:18:37;;;;;;;9.15;5.38;;;;;;;11.01;55.55;101562.88;4934962;28;20038;-91
2021/01/11 11:21:07;;;;;;;11.55;3.78;;;;;;;11.39;54.99;101563.75;4934072;28;20069;-88
2021/01/11 11:23:32;;;;;;;13.65;9.75;;;;;;;11.24;55.46;101565.59;4968347;28;20049;-88
2021/01/11 11:25:59;;;;;;;11.18;6.43;;;;;;;10.93;55.93;101550.16;4950348;28;20030;-88